עמוד ראשי
METAR-TAF:

METAR-TAF

שדות תעופה :

Cayo Coco, קובה

קו רוחב: 22-27-40N, קו אורך: 078-19-42W, גובה: 4מטר

תצפית מזג אוויר נוכחית

הדו"ח נערך לפני 42דקות, בשעה 13:50 UTC
רוח 4קשר מכיוון דרום/דרום-מערב, משתנה בין דרום ו מערב/דרום-מערב
טמפרטורת 29 צלסיוס
לחות 89%
לחץ 1015 hPa
ראות: 9000מטר
עננים בינוניים בגובה 6000רגל

METAR: MUCC 131350Z 20004KT 180V240 9000 BKN060 29/27 Q1015

זמן: 10:32 (14:32 UTC)

תחזית

הדו"ח נערך לפני 3 שעות ו 32דקות, בשעה 11:00 UTC
תחזית בתוקף מ 13 ב 12 UTC עד 14 ב 12 UTC
רוח 3קשר עם כיוונים משתנים
ראות: 9000מטר
עננים פזורים בגובה 2000רגל
עננים בינוניים בגובה 10000רגל
זמנית מ -
13 ב 18 UTC עד 13 ב 21 UTC
מעט עננים בגובה 2000רגל , קומולונימבוס.
זמנית מ -
13 ב 22 UTC עד 14 ב 01 UTC
ראות: 5000מטר
עננים פזורים בגובה 1800רגל , קומולונימבוס.
סופת רעמים, גשם,

TAF: MUCC 131100Z 1312/1412 VRB03KT 9000 SCT020 BKN100 TEMPO 1318/1321 FEW020CB TEMPO 1322/1401 5000 TSRA SCT018CB

תצפיות ותחזיות מזג אוויר לגבי יותר מ- 4,000 שדות תעופה ברחבי העולם. דוחות METAR ו- TAF.

התחנות הזמינות מסומנות בנקודות צהובות ואדומות על גבי המפה.

העבר את העכבר לנקודה הצבעונית על מנת לראות את שם התחנה.

לאחר מכן, לחץ כדי לראות את תוכן ואת תחזיות מזג האוויר.

כדי לשנות את המפה: לחץ על הכפתורים הירוקים עם הפלוס השחור כדי להתקרב; על הכפתור הירוק עם המקף כדי להתרחק; או בחיצים הירוקים למפות סמוכות.


METAR-TAF: